Data for 04/24/2010

Time Sea-Level Adjusted Pressure Absolute Pressure Temperature Relative Humidity Dew Point   
(mb) (inHg) (mb) (inHg) (C) (F) (%) (C) (F)
00:05 1015 29.97 844 24.92 4.2 39.6 54 -4.2 24.4
00:10 1015 29.97 844 24.92 4.2 39.6 54 -4.2 24.5
00:15 1015 29.97 844 24.92 4.2 39.5 54 -4.2 24.4
00:20 1015 29.97 844 24.92 4.1 39.4 54 -4.4 24.1
00:25 1015 29.97 844 24.92 4.3 39.7 54 -4.3 24.2
00:30 1015 29.97 844 24.92 4.2 39.6 53 -4.4 24
00:35 1015 29.97 844 24.92 4.3 39.8 53 -4.3 24.2
00:40 1015 29.97 844 24.92 4.1 39.4 55 -4.1 24.7
00:45 1015 29.97 844 24.92 3.8 38.8 56 -4.2 24.4
00:50 1015 29.97 844 24.92 3.7 38.7 55 -4.6 23.8
00:55 1015 29.97 844 24.92 3.9 39 55 -4.5 24
01:00 1015 29.97 844 24.92 3.8 38.8 55 -4.3 24.2
01:05 1015 29.97 844 24.92 3.6 38.5 57 -4.1 24.6
01:10 1015 29.97 844 24.92 3.1 37.7 59 -4 24.8
01:15 1015 29.97 844 24.92 2.7 36.9 61 -4.1 24.7
01:20 1015 29.97 845 24.95 2.7 36.8 60 -4.4 24.1
01:25 1015 29.97 845 24.95 3 37.4 59 -4.3 24.3
01:30 1015 29.97 845 24.95 2.9 37.2 60 -4.1 24.6
01:35 1015 29.97 845 24.95 2.7 36.9 61 -4.1 24.7
01:40 1015 29.97 845 24.95 2.6 36.7 61 -4.1 24.7
01:45 1015 29.97 845 24.95 2.6 36.6 62 -4 24.8
01:50 1015 29.97 845 24.95 2.5 36.5 62 -4 24.9
01:55 1015 29.97 845 24.95 2.3 36.2 63 -3.9 24.9
02:00 1015 29.97 845 24.95 2.2 36 64 -4 24.8
02:05 1016 30 845 24.95 2.1 35.9 64 -4.1 24.7
02:10 1016 30 845 24.95 2.2 35.9 64 -4 24.8
02:15 1016 30 845 24.95 2.1 35.7 64 -4 24.9
02:20 1016 30 845 24.95 2.1 35.8 63 -4.1 24.6
02:25 1016 30 845 24.95 2.3 36.1 62 -4.3 24.3
02:30 1016 30 845 24.95 2.6 36.6 60 -4.4 24.1
02:35 1016 30 845 24.95 2.9 37.2 59 -4.3 24.2
02:40 1016 30 845 24.95 2.7 36.8 60 -4.3 24.3
02:45 1016 30 845 24.95 2.3 36.2 62 -4.1 24.5
02:50 1016 30 845 24.95 2.1 35.7 63 -4.2 24.4
02:55 1016 30 845 24.95 2.2 35.9 62 -4.4 24
03:00 1016 30 845 24.95 2.3 36.2 62 -4.2 24.4
03:05 1016 30 845 24.95 1.9 35.4 65 -4.1 24.7
03:10 1016 30 845 24.95 1.9 35.5 62 -4.6 23.6
03:15 1016 30 845 24.95 2.2 35.9 62 -4.4 24.1
03:20 1016 30 845 24.95 2.1 35.8 61 -4.5 23.8
03:25 1016 30 845 24.95 2.2 36 60 -4.7 23.5
03:30 1016 30 845 24.95 2.3 36.2 59 -4.9 23.2
03:35 1016 30 845 24.95 2.5 36.5 58 -4.9 23.2
03:40 1016 30 845 24.95 2.6 36.7 59 -4.6 23.7
03:45 1016 30 845 24.95 2.4 36.3 59 -4.8 23.3
03:50 1016 30 845 24.95 2.3 36.1 60 -4.8 23.4
03:55 1016 30 845 24.95 2.3 36.1 58 -5.2 22.6
04:00 1016 30 845 24.95 2.5 36.5 57 -5.1 22.9
04:05 1016 30 845 24.95 2.7 36.9 57 -4.9 23.1
04:10 1016 30 845 24.95 2.5 36.5 58 -5 22.9
04:15 1016 30 845 24.95 2.4 36.4 58 -4.9 23.2
04:20 1016 30 845 24.95 2.3 36.2 58 -5 23
04:25 1016 30 845 24.95 2.1 35.9 60 -4.8 23.4
04:30 1016 30 845 24.95 1.9 35.5 61 -4.8 23.4
04:35 1016 30 845 24.95 1.7 35 63 -4.7 23.6
04:40 1016 30 845 24.95 1.5 34.7 64 -4.7 23.6
04:45 1016 30 845 24.95 1.4 34.5 63 -4.9 23.1
04:50 1016 30 845 24.95 1.8 35.2 59 -5.4 22.3
04:55 1016 30 845 24.95 2.2 36 58 -5.2 22.6
05:00 1016 30 845 24.95 2.1 35.7 61 -4.7 23.5
05:05 1016 30 845 24.95 1.6 34.9 63 -4.7 23.6
05:10 1016 30 845 24.95 1.5 34.7 63 -4.9 23.2
05:15 1016 30 845 24.95 1.7 35 61 -5 22.9
05:20 1016 30 845 24.95 1.9 35.3 62 -4.7 23.5
05:25 1016 30 845 24.95 1.7 35 64 -4.5 23.8
05:30 1016 30 845 24.95 1.5 34.6 63 -4.7 23.5
05:35 1016 30 845 24.95 1.3 34.4 64 -4.7 23.6
05:40 1016 30 845 24.95 1.1 34 65 -4.8 23.3
05:45 1016 30 845 24.95 1.3 34.4 65 -4.6 23.7
05:50 1016 30 845 24.95 1.3 34.3 65 -4.6 23.8
05:55 1016 30 845 24.95 0.9 33.7 66 -4.8 23.4
06:00 1016 30 845 24.95 1.1 33.9 64 -4.9 23.1
06:05 1016 30 845 24.95 1.1 34.1 66 -4.5 23.8
06:10 1016 30 845 24.95 0.9 33.5 67 -4.6 23.7
06:15 1016 30 845 24.95 0.9 33.6 67 -4.6 23.7
06:20 1016 30 845 24.95 0.8 33.4 67 -4.6 23.8
06:25 1016 30 845 24.95 0.6 33.1 67 -4.7 23.5
06:30 1016 30 845 24.95 0.6 33.2 67 -4.8 23.3
06:35 1016 30 845 24.95 0.8 33.4 65 -5 22.9
06:40 1016 30 845 24.95 0.9 33.7 64 -5.1 22.9
06:45 1016 30 845 24.95 1.1 34 63 -5.2 22.6
06:50 1016 30 845 24.95 1.4 34.5 61 -5.3 22.5
06:55 1016 30 845 24.95 1.5 34.7 61 -5.3 22.5
07:00 1016 30 845 24.95 1.7 35.1 60 -5.2 22.6
07:05 1016 30 845 24.95 1.5 34.7 63 -4.9 23.2
07:10 1016 30 845 24.95 1.3 34.4 62 -5.2 22.6
07:15 1016 30 845 24.95 1.5 34.6 62 -4.9 23.1
07:20 1016 30 845 24.95 1.1 34 66 -4.6 23.8
07:25 1016 30 845 24.95 0.9 33.5 66 -4.8 23.4
07:30 1016 30 845 24.95 1 33.8 63 -5.2 22.7
07:35 1016 30 845 24.95 1.4 34.5 61 -5.2 22.6
07:40 1016 30 845 24.95 1.8 35.3 59 -5.4 22.3
07:45 1016 30 845 24.95 2.5 36.5 56 -5.3 22.4
07:50 1016 30 845 24.95 2.9 37.2 57 -4.7 23.5
07:55 1016 30 845 24.95 3 37.4 57 -4.6 23.7
08:00 1016 30 845 24.95 3.3 38 55 -4.8 23.4
08:05 1016 30 845 24.95 3.6 38.4 55 -4.6 23.7
08:10 1016 30 845 24.95 3.5 38.2 57 -4.3 24.3
08:15 1016 30 845 24.95 3.5 38.3 56 -4.4 24.1
08:20 1016 30 845 24.95 3.6 38.5 56 -4.4 24.1
08:25 1016 30 845 24.95 4.1 39.4 54 -4.4 24
08:30 1016 30 845 24.95 4.5 40.1 52 -4.6 23.7
08:35 1016 30 845 24.95 5 41 49 -4.8 23.4
08:40 1016 30 845 24.95 5.9 42.7 46 -4.8 23.4
08:45 1016 30 845 24.95 6.4 43.5 45 -4.7 23.6
08:50 1016 30 845 24.95 6.4 43.6 46 -4.3 24.2
08:55 1016 30 845 24.95 6.7 44.1 45 -4.5 24
09:00 1016 30 845 24.95 7.4 45.2 40 -5.3 22.5
09:05 1016 30 845 24.95 8 46.5 35 -6.4 20.4
09:10 1016 30 845 24.95 8.6 47.5 33 -6.7 20
09:15 1016 30 845 24.95 9 48.2 33 -6.4 20.5
09:20 1016 30 845 24.95 9.9 49.7 30 -6.8 19.8
09:25 1016 30 845 24.95 10 50 32 -6 21.2
09:30 1016 30 845 24.95 9.4 48.9 31 -6.7 19.9
09:35 1016 30 845 24.95 9.9 49.8 30 -6.6 20
09:40 1016 30 845 24.95 10.6 51.1 30 -6.1 21
09:45 1016 30 845 24.95 10.8 51.5 31 -5.5 22.1
09:50 1016 30 845 24.95 10.2 50.4 32 -5.9 21.5
09:55 1016 30 845 24.95 10.5 50.9 33 -5.2 22.6
10:00 1016 30 845 24.95 10.8 51.4 34 -4.5 23.9
10:05 1016 30 845 24.95 11 51.7 32 -5 23
10:10 1016 30 845 24.95 11 51.8 31 -5.3 22.5
10:15 1016 30 845 24.95 10.9 51.7 33 -4.8 23.3
10:20 1015 29.97 845 24.95 10.2 50.3 32 -5.7 21.8
10:25 1015 29.97 844 24.92 11.6 52.9 30 -5.5 22.1
10:30 1015 29.97 844 24.92 12.7 54.8 28 -5.2 22.6
10:35 1015 29.97 844 24.92 12.7 54.8 29 -5 23
10:40 1015 29.97 844 24.92 12.5 54.5 27 -6 21.2
10:45 1015 29.97 844 24.92 13 55.4 26 -5.9 21.4
10:50 1015 29.97 844 24.92 11.9 53.5 29 -5.6 22
10:55 1015 29.97 844 24.92 12.4 54.3 27 -5.9 21.4
11:00 1015 29.97 844 24.92 13.9 56.9 26 -5.5 22.1
11:05 1015 29.97 844 24.92 14 57.2 26 -5.1 22.8
11:10 1015 29.97 844 24.92 14.1 57.4 27 -4.8 23.4
11:15 1015 29.97 844 24.92 13.8 56.8 26 -5.2 22.7
11:20 1015 29.97 844 24.92 13.9 56.9 28 -4.5 24
11:25 1015 29.97 844 24.92 13.6 56.5 27 -5.2 22.6
11:30 1015 29.97 844 24.92 14.1 57.3 26 -4.9 23.2
11:35 1014 29.94 844 24.92 14.1 57.4 26 -4.8 23.4
11:40 1014 29.94 844 24.92 15 59 25 -4.9 23.2
11:45 1014 29.94 844 24.92 15.1 59.1 25 -4.9 23.3
11:50 1014 29.94 843 24.89 14.9 58.8 23 -6 21.2
11:55 1014 29.94 843 24.89 14.5 58 23 -6.4 20.4
12:00 1014 29.94 843 24.89 14.3 57.8 24 -5.8 21.6
12:05 1014 29.94 843 24.89 14.1 57.5 24 -6.2 20.9
12:10 1014 29.94 843 24.89 14.6 58.3 23 -6.4 20.5
12:15 1014 29.94 843 24.89 15 59.1 23 -6.1 21.1
12:20 1014 29.94 843 24.89 14.3 57.8 23 -6.2 20.8
12:25 1014 29.94 843 24.89 13.9 57 24 -6.1 21
12:30 1014 29.94 843 24.89 13.6 56.4 24 -6.3 20.7
12:35 1014 29.94 843 24.89 14.7 58.4 21 -7.2 19
12:40 1014 29.94 843 24.89 14.5 58.2 22 -7.1 19.1
12:45 1014 29.94 843 24.89 14.9 58.7 21 -7.1 19.2
12:50 1014 29.94 843 24.89 14.9 58.8 21 -7.4 18.6
12:55 1014 29.94 843 24.89 15.1 59.2 21 -7.2 19
13:00 1014 29.94 843 24.89 15.2 59.3 21 -7 19.3
13:05 1014 29.94 843 24.89 15 58.9 21 -6.9 19.6
13:10 1014 29.94 843 24.89 15.4 59.7 21 -7 19.5
13:15 1013 29.91 843 24.89 15 58.9 21 -7 19.4
13:20 1013 29.91 843 24.89 14.6 58.2 23 -6.3 20.6
13:25 1013 29.91 843 24.89 14.4 57.9 22 -6.9 19.6
13:30 1013 29.91 842 24.86 14.6 58.3 22 -7.1 19.3
13:35 1013 29.91 842 24.86 14.6 58.3 20 -8.1 17.4
13:40 1013 29.91 842 24.86 15.1 59.3 20 -7.8 18
13:45 1013 29.91 842 24.86 15.2 59.3 20 -7.4 18.7
13:50 1013 29.91 842 24.86 15.2 59.3 21 -7 19.4
13:55 1013 29.91 842 24.86 15.4 59.8 20 -7.1 19.2
14:00 1013 29.91 842 24.86 15.5 59.8 21 -6.8 19.7
14:05 1013 29.91 842 24.86 15.3 59.5 20 -7.2 19.1
14:10 1013 29.91 842 24.86 15.1 59.2 22 -6.5 20.3
14:15 1013 29.91 842 24.86 15.3 59.5 21 -6.7 19.9
14:20 1013 29.91 842 24.86 15.5 59.8 19 -7.8 18
14:25 1013 29.91 842 24.86 15.6 60 20 -7.2 19
14:30 1013 29.91 842 24.86 15.2 59.4 20 -7.4 18.6
14:35 1013 29.91 842 24.86 15.3 59.5 19 -7.8 17.9
14:40 1013 29.91 842 24.86 15.4 59.8 20 -7.3 18.8
14:45 1013 29.91 842 24.86 15.3 59.5 21 -7.1 19.2
14:50 1013 29.91 842 24.86 14.9 58.9 22 -6.8 19.7
14:55 1013 29.91 842 24.86 14.8 58.6 22 -6.8 19.7
15:00 1013 29.91 842 24.86 15.1 59.1 21 -7.2 19.1
15:05 1013 29.91 842 24.86 14.9 58.8 22 -6.9 19.6
15:10 1013 29.91 842 24.86 15 59 22 -6.3 20.7
15:15 1013 29.91 842 24.86 14.9 58.8 22 -6.7 19.9
15:20 1013 29.91 842 24.86 15 59 23 -6 21.1
15:25 1013 29.91 842 24.86 15 59 22 -6.6 20.1
15:30 1013 29.91 842 24.86 15.8 60.5 21 -6.2 20.8
15:35 1013 29.91 842 24.86 16.1 60.9 21 -6.3 20.7
15:40 1013 29.91 842 24.86 15.9 60.6 21 -6.1 21
15:45 1013 29.91 842 24.86 15.6 60.1 22 -6 21.2
15:50 1012 29.88 842 24.86 14.9 58.8 22 -6.5 20.4
15:55 1012 29.88 842 24.86 14.6 58.3 23 -6.1 21
16:00 1012 29.88 842 24.86 14.4 58 24 -5.7 21.8
16:05 1012 29.88 842 24.86 14.6 58.3 24 -5.8 21.5
16:10 1012 29.88 841 24.83 14.6 58.2 24 -5.8 21.5
16:15 1012 29.88 841 24.83 14.7 58.4 24 -5.8 21.6
16:20 1012 29.88 841 24.83 14.4 58 24 -5.8 21.5
16:25 1012 29.88 841 24.83 14.2 57.6 24 -5.9 21.4
16:30 1012 29.88 841 24.83 14.3 57.7 25 -5.3 22.4
16:35 1012 29.88 841 24.83 14.9 58.7 24 -5.4 22.3
16:40 1012 29.88 841 24.83 14.8 58.6 24 -5.4 22.2
16:45 1012 29.88 841 24.83 14.9 58.8 25 -5.1 22.9
16:50 1012 29.88 841 24.83 14.8 58.6 26 -4.6 23.7
16:55 1012 29.88 841 24.83 14.7 58.5 26 -4.4 24
17:00 1012 29.88 841 24.83 14.7 58.5 26 -4.7 23.6
17:05 1012 29.88 841 24.83 14.6 58.3 25 -4.9 23.1
17:10 1012 29.88 842 24.86 14.8 58.6 26 -4.3 24.3
17:15 1012 29.88 842 24.86 14.5 58 27 -4.2 24.4
17:20 1012 29.88 842 24.86 14.2 57.6 26 -4.9 23.2
17:25 1012 29.88 842 24.86 14 57.1 27 -4.6 23.8
17:30 1012 29.88 842 24.86 14 57.1 28 -4 24.8
17:35 1012 29.88 842 24.86 14 57.1 28 -4.3 24.3
17:40 1012 29.88 842 24.86 13.8 56.9 29 -3.7 25.3
17:45 1013 29.91 842 24.86 14 57.1 30 -3.5 25.7
17:50 1013 29.91 842 24.86 13.3 55.9 32 -3.1 26.4
17:55 1013 29.91 842 24.86 12.7 54.9 36 -1.8 28.7
18:00 1013 29.91 842 24.86 11.9 53.5 37 -2.3 27.9
18:05 1013 29.91 842 24.86 11.9 53.3 34 -3.4 25.9
18:10 1013 29.91 842 24.86 12.3 54.2 34 -2.9 26.8
18:15 1013 29.91 842 24.86 12.5 54.6 36 -2.2 28.1
18:20 1013 29.91 842 24.86 12.6 54.7 35 -2.5 27.6
18:25 1013 29.91 842 24.86 12.5 54.4 36 -2.2 28.1
18:30 1013 29.91 842 24.86 12.2 53.9 36 -2.5 27.6
18:35 1013 29.91 842 24.86 12 53.7 36 -2.4 27.7
18:40 1012 29.88 842 24.86 11.9 53.5 37 -2.3 27.8
18:45 1012 29.88 842 24.86 11.9 53.3 38 -2.1 28.3
18:50 1013 29.91 842 24.86 11.8 53.3 38 -1.8 28.7
18:55 1012 29.88 842 24.86 11.8 53.3 37 -2.5 27.5
19:00 1012 29.88 842 24.86 12 53.5 37 -2.2 28
19:05 1012 29.88 841 24.83 12.1 53.7 35 -2.7 27.1
19:10 1012 29.88 842 24.86 12.1 53.9 37 -2.1 28.1
19:15 1013 29.91 842 24.86 12 53.7 35 -2.7 27.1
19:20 1013 29.91 842 24.86 11.5 52.8 38 -2.4 27.8
19:25 1013 29.91 842 24.86 10.7 51.3 43 -1.3 29.6
19:30 1013 29.91 842 24.86 10 49.9 49 -0.1 31.8
19:35 1013 29.91 843 24.89 9.4 48.9 49 -0.8 30.5
19:40 1013 29.91 843 24.89 9.2 48.6 49 -0.9 30.4
19:45 1014 29.94 843 24.89 9.3 48.7 49 -0.8 30.5
19:50 1014 29.94 843 24.89 9.1 48.3 54 0.2 32.4
19:55 1014 29.94 843 24.89 8.5 47.3 60 1.2 34.2
20:00 1014 29.94 843 24.89 8.1 46.5 58 0.5 32.8
20:05 1014 29.94 843 24.89 8 46.4 56 -0.1 31.8
20:10 1014 29.94 844 24.92 7.9 46.2 60 0.6 33
20:15 1014 29.94 844 24.92 7.7 45.9 60 0.5 33
20:20 1015 29.97 844 24.92 7.8 46 62 0.9 33.6
20:25 1015 29.97 844 24.92 8 46.3 60 0.7 33.2
20:30 1015 29.97 844 24.92 8.1 46.5 60 0.7 33.2
20:35 1015 29.97 844 24.92 7.9 46.3 59 0.4 32.6
20:40 1015 29.97 844 24.92 7.9 46.2 59 0.3 32.5
20:45 1015 29.97 844 24.92 7.9 46.2 57 -0.1 31.8
20:50 1015 29.97 845 24.95 8 46.3 57 -0.1 31.8
20:55 1016 30 845 24.95 7.9 46.3 56 -0.3 31.4
21:00 1016 30 845 24.95 7.7 45.8 57 -0.4 31.3
21:05 1016 30 845 24.95 7.5 45.4 58 -0.2 31.6
21:10 1016 30 845 24.95 7.3 45.1 54 -1.3 29.7
21:15 1016 30 845 24.95 7.2 44.9 55 -1.3 29.7
21:20 1016 30 845 24.95 7.1 44.8 54 -1.5 29.2
21:25 1016 30 845 24.95 7.1 44.7 55 -1.4 29.4
21:30 1016 30 845 24.95 6.9 44.5 53 -1.9 28.6
21:35 1016 30 845 24.95 6.8 44.3 53 -2 28.4
21:40 1016 30 845 24.95 6.8 44.2 52 -2.4 27.7
21:45 1016 30 845 24.95 6.6 44 51 -2.7 27.1
21:50 1016 30 845 24.95 6.5 43.8 52 -2.5 27.5
21:55 1016 30 846 24.98 6.4 43.5 54 -2.4 27.7
22:00 1016 30 846 24.98 6.2 43.2 53 -2.5 27.4
22:05 1016 30 846 24.98 6.3 43.3 51 -3 26.5
22:10 1017 30.03 846 24.98 6.2 43.2 47 -4.2 24.4
22:15 1017 30.03 846 24.98 6.2 43.2 46 -4.6 23.7
22:20 1017 30.03 846 24.98 6.3 43.3 46 -4.6 23.7
22:25 1017 30.03 846 24.98 6.2 43.2 44 -5.1 22.8
22:30 1017 30.03 846 24.98 6.2 43.1 44 -5.3 22.5
22:35 1017 30.03 846 24.98 6.1 43 42 -5.9 21.4
22:40 1017 30.03 846 24.98 6.2 43.1 42 -5.9 21.4
22:45 1017 30.03 846 24.98 6.2 43.1 42 -5.9 21.4
22:50 1017 30.03 846 24.98 6.2 43.1 42 -5.9 21.4
22:55 1017 30.03 846 24.98 6.2 43.1 43 -5.6 22
23:00 1017 30.03 846 24.98 6.1 43.1 41 -6 21.2
23:05 1017 30.03 846 24.98 6.1 43 43 -5.6 21.9
23:10 1017 30.03 846 24.98 6.1 42.9 44 -5.3 22.5
23:15 1017 30.03 846 24.98 6 42.7 44 -5.4 22.3
23:20 1017 30.03 846 24.98 5.9 42.6 44 -5.4 22.4
23:25 1017 30.03 847 25.01 5.9 42.6 43 -5.6 22
23:30 1017 30.03 847 25.01 5.9 42.6 43 -5.7 21.7
23:35 1017 30.03 847 25.01 5.8 42.5 43 -5.9 21.4
23:40 1017 30.03 847 25.01 5.8 42.5 44 -5.6 21.9
23:45 1017 30.03 847 25.01 5.8 42.4 44 -5.5 22
23:50 1017 30.03 847 25.01 5.6 42 43 -6.2 20.9
23:55 1017 30.03 847 25.01 5.5 41.9 43 -6.1 21
24:00 1017 30.03 847 25.01 5.5 41.8 42 -6.5 20.3